Time;durP1;ratioP1;P1;durP2;ratioP2;P2;SDS_P1;SDS_P2;PMS_P1;PMS_P2;Temp;Humidity;BMP_temperature;BMP_pressure;BME280_temperature;BME280_humidity;BME280_pressure;Samples;Min_cycle;Max_cycle;Signal;HPM_P1;HPM_P2
2022/08/30 00:01:13;;;;;;;6.70;3.45;;;;;;;17.43;93.31;101051.50;2087204;28;20052;-66
2022/08/30 00:02:15;;;;;;;3.58;2.00;;;;;;;17.37;93.10;101048.16;2072140;28;20049;-67
2022/08/30 00:03:20;;;;;;;3.08;2.05;;;;;;;17.42;93.41;101046.41;2073105;28;20046;-68
2022/08/30 00:04:25;;;;;;;4.75;2.20;;;;;;;17.43;93.47;101050.72;2078029;28;20045;-67
2022/08/30 00:05:30;;;;;;;3.72;2.22;;;;;;;17.46;93.46;101050.09;2072775;28;20420;-66
2022/08/30 00:06:32;;;;;;;2.25;1.45;;;;;;;17.43;93.19;101056.16;2071341;28;20037;-66
2022/08/30 00:07:34;;;;;;;5.47;1.60;;;;;;;17.32;93.09;101053.72;2071981;28;20054;-67
2022/08/30 00:08:45;;;;;;;4.30;1.10;;;;;;;17.29;93.58;101057.06;2080030;28;20112;-67
2022/08/30 00:09:46;;;;;;;3.75;0.90;;;;;;;17.36;93.55;101062.84;2097335;28;20048;-67
2022/08/30 00:10:54;;;;;;;2.67;0.75;;;;;;;17.36;93.67;101060.13;2088300;28;20052;-66
2022/08/30 00:11:57;;;;;;;1.95;0.75;;;;;;;17.37;93.70;101056.31;2081554;28;20517;-66
2022/08/30 00:13:02;;;;;;;2.65;0.65;;;;;;;17.38;93.63;101066.06;2088426;28;20033;-68
2022/08/30 00:14:11;;;;;;;2.95;0.70;;;;;;;17.33;93.61;101062.66;2078379;28;20045;-66
2022/08/30 00:15:13;;;;;;;0.60;0.50;;;;;;;17.36;93.38;101067.47;2080600;28;20033;-68
2022/08/30 00:16:21;;;;;;;2.03;0.80;;;;;;;17.36;93.30;101060.13;2064940;28;20966;-67
2022/08/30 00:17:29;;;;;;;1.33;0.80;;;;;;;17.35;93.63;101060.44;2065708;28;20043;-68
2022/08/30 00:18:31;;;;;;;1.90;0.70;;;;;;;17.34;93.76;101065.09;2065031;28;20034;-67
2022/08/30 00:19:36;;;;;;;2.42;0.60;;;;;;;17.22;93.94;101056.69;2072713;28;20034;-67
2022/08/30 00:20:38;;;;;;;4.32;0.70;;;;;;;17.22;94.06;101062.13;2088250;28;20032;-67
2022/08/30 00:21:40;;;;;;;4.15;1.00;;;;;;;17.28;94.17;101055.47;2080664;28;20040;-67
2022/08/30 00:22:42;;;;;;;3.38;1.25;;;;;;;17.32;94.16;101064.59;2072414;28;20037;-66
2022/08/30 00:23:45;;;;;;;7.22;0.90;;;;;;;17.33;93.99;101063.47;2056514;28;20057;-66
2022/08/30 00:24:51;;;;;;;3.25;0.80;;;;;;;17.30;94.04;101064.09;2073156;28;20072;-67
2022/08/30 00:25:55;;;;;;;1.02;0.70;;;;;;;17.31;93.92;101059.47;2071848;28;20049;-67
2022/08/30 00:26:57;;;;;;;1.85;0.60;;;;;;;17.30;94.22;101060.56;2072341;28;20053;-67
2022/08/30 00:27:59;;;;;;;2.80;0.90;;;;;;;17.30;94.54;101064.09;2080537;28;20056;-67
2022/08/30 00:29:01;;;;;;;5.25;0.90;;;;;;;17.30;94.42;101063.28;2063862;28;20041;-67
2022/08/30 00:30:10;;;;;;;2.80;0.82;;;;;;;17.28;94.33;101060.91;2072795;28;20030;-67
2022/08/30 00:31:12;;;;;;;4.45;0.85;;;;;;;17.28;94.16;101066.31;2073703;28;20046;-67
2022/08/30 00:32:15;;;;;;;2.47;0.95;;;;;;;17.30;93.90;101060.56;2064482;28;20037;-67
2022/08/30 00:33:17;;;;;;;1.50;0.60;;;;;;;17.30;94.32;101061.38;2071867;28;20053;-66
2022/08/30 00:34:20;;;;;;;0.95;0.50;;;;;;;17.32;94.16;101070.03;2072621;28;20040;-67
2022/08/30 00:35:25;;;;;;;2.40;0.60;;;;;;;17.34;94.31;101062.38;2079725;28;20025;-67
2022/08/30 00:36:29;;;;;;;2.20;0.95;;;;;;;17.22;94.18;101059.41;2072125;28;20038;-67
2022/08/30 00:37:34;;;;;;;1.77;0.63;;;;;;;17.25;94.41;101061.50;2072737;28;20052;-67
2022/08/30 00:38:39;;;;;;;6.00;0.52;;;;;;;17.23;94.50;101068.38;2080504;28;20044;-67
2022/08/30 00:39:41;;;;;;;1.30;0.57;;;;;;;17.17;94.32;101073.13;2080471;28;20029;-66
2022/08/30 00:40:45;;;;;;;2.67;0.50;;;;;;;17.06;93.94;101069.06;2079896;28;20049;-67
2022/08/30 00:41:48;;;;;;;3.33;0.60;;;;;;;17.09;94.05;101071.97;2079999;28;20551;-67
2022/08/30 00:42:58;;;;;;;0.80;0.47;;;;;;;17.03;93.97;101077.84;2079282;28;20041;-66
2022/08/30 00:44:03;;;;;;;2.97;0.40;;;;;;;17.03;94.11;101069.69;2080350;28;20420;-67
2022/08/30 00:45:13;;;;;;;2.13;0.57;;;;;;;17.01;93.90;101074.63;2073237;28;20496;-67
2022/08/30 00:46:18;;;;;;;0.55;0.40;;;;;;;17.04;93.85;101076.72;2087706;28;20044;-66
2022/08/30 00:47:21;;;;;;;2.30;0.50;;;;;;;17.07;93.60;101076.09;2087966;28;20036;-67
2022/08/30 00:48:26;;;;;;;1.48;0.65;;;;;;;17.04;93.66;101076.72;2079854;28;20170;-67
2022/08/30 00:49:28;;;;;;;2.10;0.80;;;;;;;16.99;93.49;101069.50;2072775;28;20042;-67
2022/08/30 00:50:36;;;;;;;2.78;0.52;;;;;;;16.98;93.44;101072.50;2072209;28;20038;-67
2022/08/30 00:51:41;;;;;;;2.92;0.60;;;;;;;17.03;93.82;101075.13;2073392;28;20026;-67
2022/08/30 00:52:51;;;;;;;3.55;1.33;;;;;;;17.03;93.97;101081.34;2064435;28;20049;-67
2022/08/30 00:53:55;;;;;;;1.45;0.50;;;;;;;17.07;93.97;101076.09;2065822;28;20058;-67
2022/08/30 00:55:04;;;;;;;2.40;1.00;;;;;;;17.03;93.85;101081.34;2078375;28;20052;-67
2022/08/30 00:56:06;;;;;;;2.97;0.90;;;;;;;17.05;93.82;101073.69;2072048;28;20568;-67
2022/08/30 00:57:12;;;;;;;2.03;0.82;;;;;;;17.09;94.12;101077.41;2055885;28;20030;-67
2022/08/30 00:58:20;;;;;;;1.58;0.65;;;;;;;17.16;94.07;101076.97;2064534;28;20069;-66
2022/08/30 00:59:29;;;;;;;3.28;0.52;;;;;;;17.16;94.15;101074.25;2073523;28;20053;-67
2022/08/30 01:00:34;;;;;;;2.95;0.63;;;;;;;17.14;94.06;101071.81;2085674;28;20041;-66
2022/08/30 01:01:41;;;;;;;1.05;0.50;;;;;;;17.18;93.86;101076.63;2072202;28;20037;-67
2022/08/30 01:02:45;;;;;;;5.47;0.77;;;;;;;17.19;93.91;101073.63;2064091;28;20383;-67
2022/08/30 01:03:50;;;;;;;1.88;0.50;;;;;;;17.17;94.11;101070.41;2065083;28;20049;-67
2022/08/30 01:04:53;;;;;;;1.63;0.50;;;;;;;17.20;94.05;101069.78;2072247;28;20401;-66
2022/08/30 01:05:55;;;;;;;2.05;0.47;;;;;;;17.24;93.92;101070.75;2072657;28;20396;-67
2022/08/30 01:06:59;;;;;;;1.52;0.50;;;;;;;17.23;93.85;101071.88;2072294;28;20037;-66
2022/08/30 01:08:04;;;;;;;1.48;0.60;;;;;;;17.28;93.70;101076.41;2072690;28;20033;-67
2022/08/30 01:09:09;;;;;;;2.10;0.35;;;;;;;17.21;93.47;101076.00;2064633;28;20631;-67
2022/08/30 01:10:14;;;;;;;3.63;0.45;;;;;;;17.18;93.55;101074.75;2072345;28;20728;-67
2022/08/30 01:11:22;;;;;;;2.35;0.82;;;;;;;17.16;93.60;101074.25;2067155;28;20046;-67
2022/08/30 01:12:25;;;;;;;4.10;0.50;;;;;;;17.23;93.34;101080.03;2073274;28;20037;-67
2022/08/30 01:13:35;;;;;;;3.72;0.52;;;;;;;17.27;93.42;101078.28;2079922;28;20041;-67
2022/08/30 01:14:38;;;;;;;3.35;1.25;;;;;;;17.21;93.16;101076.00;2080528;28;20407;-67
2022/08/30 01:15:45;;;;;;;5.15;1.20;;;;;;;17.13;93.26;101069.44;2072005;28;20033;-67
2022/08/30 01:16:48;;;;;;;4.68;1.52;;;;;;;17.12;93.28;101078.69;2072698;28;20435;-66
2022/08/30 01:17:53;;;;;;;2.97;0.70;;;;;;;17.14;93.18;101081.91;2072188;28;20042;-66
2022/08/30 01:18:59;;;;;;;2.97;1.38;;;;;;;17.17;93.51;101085.91;2064645;28;20061;-66
2022/08/30 01:20:05;;;;;;;2.45;0.80;;;;;;;17.19;93.25;101076.34;2072105;28;20080;-66
2022/08/30 01:21:19;;;;;;;4.13;1.00;;;;;;;17.16;93.35;101078.88;2073933;28;20038;-66
2022/08/30 01:22:34;;;;;;;1.55;0.70;;;;;;;17.21;93.11;101081.44;2066131;28;20037;-66
2022/08/30 01:23:40;;;;;;;2.78;0.65;;;;;;;17.22;92.96;101081.16;2084079;28;20044;-67
2022/08/30 01:24:46;;;;;;;7.53;0.70;;;;;;;17.25;93.07;101077.81;2088087;28;20476;-67
2022/08/30 01:25:49;;;;;;;2.55;0.60;;;;;;;17.19;93.15;101092.66;2080353;28;20119;-67
2022/08/30 01:26:54;;;;;;;5.20;0.90;;;;;;;17.22;93.19;101077.66;2080449;28;20045;-67
2022/08/30 01:28:03;;;;;;;1.08;0.50;;;;;;;17.23;93.22;101079.25;2080078;28;20049;-67
2022/08/30 01:29:10;;;;;;;2.70;0.77;;;;;;;17.18;93.02;101082.06;2080357;28;20033;-67
2022/08/30 01:30:14;;;;;;;0.65;0.40;;;;;;;17.09;92.48;101087.47;2079542;28;20045;-66
2022/08/30 01:31:19;;;;;;;1.67;0.65;;;;;;;17.08;92.85;101083.94;2072008;28;20038;-67
2022/08/30 01:32:24;;;;;;;4.88;0.50;;;;;;;17.07;92.88;101081.53;2080273;28;20045;-66
2022/08/30 01:33:26;;;;;;;2.58;0.60;;;;;;;17.08;93.27;101088.56;2072177;28;20045;-67
2022/08/30 01:34:30;;;;;;;2.78;0.60;;;;;;;17.10;92.95;101086.34;2072074;28;20497;-68
2022/08/30 01:35:44;;;;;;;5.15;1.20;;;;;;;17.16;93.04;101089.75;2072525;28;20045;-67
2022/08/30 01:36:50;;;;;;;4.40;0.60;;;;;;;17.09;92.96;101088.28;2077948;28;20053;-67
2022/08/30 01:37:54;;;;;;;2.50;0.70;;;;;;;17.07;93.14;101086.97;2072112;28;20100;-66
2022/08/30 01:39:03;;;;;;;3.08;1.08;;;;;;;17.06;92.79;101083.44;2064916;28;20608;-67
2022/08/30 01:40:08;;;;;;;4.28;0.75;;;;;;;17.05;93.13;101089.97;2056713;28;20061;-67
2022/08/30 01:41:25;;;;;;;4.13;0.50;;;;;;;16.99;92.98;101098.56;2064446;28;20046;-68
2022/08/30 01:42:34;;;;;;;2.22;0.47;;;;;;;16.99;92.89;101084.97;2072341;28;20088;-68
2022/08/30 01:43:44;;;;;;;4.47;0.95;;;;;;;17.01;92.68;101082.78;2066018;28;20551;-67
2022/08/30 01:44:48;;;;;;;3.00;0.40;;;;;;;16.99;92.76;101090.41;2073188;28;20049;-67
2022/08/30 01:45:50;;;;;;;1.35;0.50;;;;;;;16.94;92.94;101083.19;2080126;28;20045;-68
2022/08/30 01:46:55;;;;;;;2.88;0.60;;;;;;;16.91;92.79;101087.34;2055793;28;20139;-68
2022/08/30 01:47:58;;;;;;;4.25;1.60;;;;;;;16.95;92.64;101087.50;2065169;28;20046;-68
2022/08/30 01:49:09;;;;;;;1.88;0.60;;;;;;;16.90;92.65;101088.44;2079551;28;20065;-68
2022/08/30 01:50:11;;;;;;;3.35;0.70;;;;;;;16.95;92.62;101094.88;2071943;28;20034;-68
2022/08/30 01:51:20;;;;;;;4.60;0.68;;;;;;;16.91;92.63;101084.63;2071978;28;20816;-68
2022/08/30 01:52:22;;;;;;;3.70;0.80;;;;;;;16.97;92.57;101092.66;2071941;28;20041;-67
2022/08/30 01:53:24;;;;;;;4.38;0.68;;;;;;;16.97;92.49;101087.22;2078829;28;20065;-68
2022/08/30 01:54:30;;;;;;;1.48;0.68;;;;;;;16.91;92.02;101089.25;2070422;28;20049;-68
2022/08/30 01:55:35;;;;;;;4.40;0.70;;;;;;;16.90;92.31;101083.03;2065054;28;20038;-68
2022/08/30 01:56:40;;;;;;;2.15;0.65;;;;;;;16.91;92.35;101087.34;2087303;28;20500;-68
2022/08/30 01:57:43;;;;;;;5.55;0.73;;;;;;;16.90;91.93;101085.75;2079953;28;20041;-68
2022/08/30 01:58:46;;;;;;;0.93;0.55;;;;;;;16.84;91.96;101088.88;2079533;28;20056;-68
2022/08/30 01:59:51;;;;;;;1.60;0.50;;;;;;;16.89;92.26;101088.75;2079600;28;20033;-68
2022/08/30 02:00:53;;;;;;;5.20;1.33;;;;;;;16.87;92.14;101078.19;2071763;28;20041;-68
2022/08/30 02:01:55;;;;;;;1.48;0.50;;;;;;;16.87;92.16;101086.34;2071912;28;20528;-68
2022/08/30 02:02:57;;;;;;;1.35;0.50;;;;;;;16.85;92.38;101085.84;2071921;28;20392;-68
2022/08/30 02:04:00;;;;;;;4.22;0.70;;;;;;;16.85;92.52;101082.34;2073461;28;20050;-68
2022/08/30 02:05:04;;;;;;;4.40;0.90;;;;;;;16.85;92.38;101082.34;2087550;28;20056;-68
2022/08/30 02:06:11;;;;;;;1.85;0.95;;;;;;;16.84;92.24;101086.16;2071935;28;20116;-68
2022/08/30 02:07:18;;;;;;;2.95;0.70;;;;;;;16.81;92.15;101089.50;2065312;28;20046;-68
2022/08/30 02:08:20;;;;;;;3.03;0.50;;;;;;;16.82;92.19;101088.38;2072608;28;20038;-68
2022/08/30 02:09:22;;;;;;;1.27;0.60;;;;;;;16.86;91.70;101092.88;2072023;28;20042;-68
2022/08/30 02:10:29;;;;;;;0.65;0.47;;;;;;;16.87;91.99;101082.84;2072445;28;20038;-68
2022/08/30 02:11:30;;;;;;;2.30;0.60;;;;;;;16.82;91.79;101089.19;2055707;28;20043;-68
2022/08/30 02:12:33;;;;;;;1.60;0.60;;;;;;;16.81;91.72;101090.28;2055804;28;20042;-67
2022/08/30 02:13:37;;;;;;;1.13;0.40;;;;;;;16.88;92.05;101090.66;2064062;28;20042;-68
2022/08/30 02:14:40;;;;;;;1.83;0.60;;;;;;;16.86;91.77;101087.44;2071905;28;20041;-68
2022/08/30 02:15:42;;;;;;;3.15;0.70;;;;;;;16.87;91.76;101089.06;2063610;28;20425;-67
2022/08/30 02:16:47;;;;;;;1.83;0.50;;;;;;;16.82;91.40;101088.38;2064705;28;20069;-67
2022/08/30 02:17:49;;;;;;;3.65;0.68;;;;;;;16.85;91.49;101088.56;2072424;28;20041;-67
2022/08/30 02:18:57;;;;;;;1.52;0.50;;;;;;;16.87;91.53;101089.06;2069854;28;20416;-67
2022/08/30 02:20:03;;;;;;;3.63;0.70;;;;;;;16.87;91.39;101094.50;2065278;28;20093;-68
2022/08/30 02:21:07;;;;;;;3.42;0.60;;;;;;;16.86;91.39;101092.06;2080096;28;20045;-68
2022/08/30 02:22:09;;;;;;;1.10;0.50;;;;;;;16.84;90.95;101095.13;2079805;28;20140;-67
2022/08/30 02:23:11;;;;;;;1.88;0.60;;;;;;;16.78;90.76;101096.34;2079733;28;20053;-67
2022/08/30 02:24:16;;;;;;;3.25;0.75;;;;;;;16.73;90.83;101093.69;2071758;28;20578;-68
2022/08/30 02:25:21;;;;;;;2.33;0.80;;;;;;;16.60;91.32;101092.63;2064265;28;20034;-67
2022/08/30 02:26:26;;;;;;;1.08;0.50;;;;;;;16.60;91.58;101091.84;2064323;28;20034;-67
2022/08/30 02:27:28;;;;;;;1.00;0.47;;;;;;;16.65;91.54;101089.81;2064067;28;20398;-68
2022/08/30 02:28:31;;;;;;;1.65;0.65;;;;;;;16.59;91.59;101087.53;2072085;28;20046;-68
2022/08/30 02:29:39;;;;;;;1.80;0.60;;;;;;;16.62;91.47;101086.91;2081824;28;20045;-68
2022/08/30 02:30:44;;;;;;;2.42;0.90;;;;;;;16.59;91.25;101093.75;2071053;28;20030;-68
2022/08/30 02:31:46;;;;;;;2.58;0.60;;;;;;;16.60;91.08;101095.34;2072228;28;20044;-68
2022/08/30 02:32:48;;;;;;;3.58;0.65;;;;;;;16.62;91.53;101104.00;2063754;28;20042;-67
2022/08/30 02:33:52;;;;;;;1.17;0.68;;;;;;;16.56;91.55;101099.78;2072126;28;20692;-67
2022/08/30 02:34:54;;;;;;;1.85;0.50;;;;;;;16.60;91.54;101099.97;2071698;28;20045;-68
2022/08/30 02:36:01;;;;;;;3.10;0.60;;;;;;;16.64;91.42;101100.97;2064482;28;20038;-67
2022/08/30 02:37:08;;;;;;;3.05;0.63;;;;;;;16.64;91.00;101098.25;2064748;28;20038;-68
2022/08/30 02:38:13;;;;;;;2.45;0.77;;;;;;;16.57;91.34;101095.16;2072423;28;20042;-68
2022/08/30 02:39:19;;;;;;;2.22;0.73;;;;;;;16.56;90.96;101104.41;2079952;28;20048;-68
2022/08/30 02:40:23;;;;;;;2.13;0.60;;;;;;;16.51;91.07;101107.25;2079784;28;20037;-68
2022/08/30 02:41:26;;;;;;;2.17;0.65;;;;;;;16.58;91.39;101102.19;2079525;28;20037;-68
2022/08/30 02:42:37;;;;;;;2.40;0.50;;;;;;;16.66;91.63;101098.75;2071698;28;20050;-68
2022/08/30 02:43:47;;;;;;;1.58;0.50;;;;;;;16.65;91.12;101097.97;2074370;28;20061;-67
2022/08/30 02:44:49;;;;;;;2.22;0.75;;;;;;;16.65;91.38;101102.59;2087813;28;20032;-68
2022/08/30 02:45:52;;;;;;;1.50;0.60;;;;;;;16.57;91.36;101106.03;2071538;28;20052;-69
2022/08/30 02:46:56;;;;;;;3.50;0.55;;;;;;;16.54;91.32;101106.63;2071597;28;20046;-67
2022/08/30 02:48:01;;;;;;;3.72;0.60;;;;;;;16.51;91.94;101104.53;2072018;28;20519;-69
2022/08/30 02:49:07;;;;;;;3.13;0.50;;;;;;;16.51;92.02;101102.59;2072069;28;20056;-69
2022/08/30 02:50:10;;;;;;;1.75;0.55;;;;;;;16.47;92.18;101108.97;2063637;28;20038;-67
2022/08/30 02:51:14;;;;;;;1.60;0.50;;;;;;;16.42;92.28;101107.16;2072415;28;20037;-67
2022/08/30 02:52:19;;;;;;;2.15;0.50;;;;;;;16.43;92.36;101106.84;2079542;28;20052;-67
2022/08/30 02:53:22;;;;;;;1.75;0.70;;;;;;;16.44;92.08;101113.09;2079800;28;20053;-68
2022/08/30 02:54:31;;;;;;;2.63;0.60;;;;;;;16.40;92.05;101112.88;2085593;28;20053;-68
2022/08/30 02:55:36;;;;;;;;;;;;;;;16.43;92.01;101112.28;2072006;28;20046;-66
2022/08/30 02:56:41;;;;;;;1.63;0.60;;;;;;;16.38;91.89;101108.88;2068631;28;19921;-67
2022/08/30 02:57:43;;;;;;;2.28;0.65;;;;;;;16.41;92.01;101114.50;2071642;28;20038;-67
2022/08/30 02:58:50;;;;;;;1.52;0.60;;;;;;;16.36;91.88;101111.91;2071657;28;20034;-68
2022/08/30 02:59:58;;;;;;;1.38;0.60;;;;;;;16.30;91.76;101112.28;2083512;28;20061;-68
2022/08/30 03:01:00;;;;;;;1.90;0.60;;;;;;;16.28;91.80;101119.94;2079678;28;20045;-68
2022/08/30 03:02:05;;;;;;;2.08;0.43;;;;;;;16.29;92.52;101116.91;2071987;28;20041;-68
2022/08/30 03:03:10;;;;;;;2.90;0.52;;;;;;;16.31;92.44;101103.84;2063943;28;20045;-68
2022/08/30 03:04:14;;;;;;;1.33;0.47;;;;;;;16.22;92.46;101119.25;2072388;28;20381;-69
2022/08/30 03:05:19;;;;;;;2.33;0.60;;;;;;;16.28;92.30;101109.88;2071146;28;20053;-69
2022/08/30 03:06:23;;;;;;;2.70;0.60;;;;;;;16.27;92.49;101123.75;2079703;28;20044;-68
2022/08/30 03:07:25;;;;;;;2.05;0.45;;;;;;;16.34;92.29;101122.25;2079545;28;20517;-69
2022/08/30 03:08:31;;;;;;;1.88;0.40;;;;;;;16.32;92.20;101123.66;2079584;28;20034;-70
2022/08/30 03:09:34;;;;;;;1.45;0.50;;;;;;;16.27;91.83;101115.59;2063281;28;20034;-69
2022/08/30 03:10:39;;;;;;;0.88;0.35;;;;;;;16.17;92.20;101122.03;2057207;28;20043;-69
2022/08/30 03:11:44;;;;;;;1.30;0.57;;;;;;;16.21;92.44;101121.16;2079402;28;20025;-69
2022/08/30 03:12:46;;;;;;;0.73;0.60;;;;;;;16.25;92.56;101121.34;2071167;28;20088;-69
2022/08/30 03:13:53;;;;;;;1.48;0.38;;;;;;;16.24;92.44;101121.66;2063432;28;20057;-68
2022/08/30 03:14:59;;;;;;;2.58;0.55;;;;;;;16.25;92.52;101121.34;2065471;28;20042;-69
2022/08/30 03:16:06;;;;;;;1.17;0.50;;;;;;;16.24;92.74;101117.03;2072047;28;20034;-69
2022/08/30 03:17:09;;;;;;;2.17;0.40;;;;;;;16.26;92.44;101116.72;2079579;28;20045;-68
2022/08/30 03:18:14;;;;;;;0.60;0.40;;;;;;;16.26;92.61;101116.72;2079473;28;20042;-69
2022/08/30 03:19:24;;;;;;;1.00;0.50;;;;;;;16.16;92.26;101117.72;2079423;28;20068;-69
2022/08/30 03:20:28;;;;;;;0.90;0.40;;;;;;;16.19;92.26;101122.56;2080131;28;20048;-69
2022/08/30 03:21:31;;;;;;;0.52;0.40;;;;;;;16.17;92.24;101119.31;2071425;28;20564;-69
2022/08/30 03:22:35;;;;;;;0.85;0.30;;;;;;;16.20;92.32;101113.31;2071548;28;20053;-69
2022/08/30 03:23:39;;;;;;;3.22;0.50;;;;;;;16.24;92.09;101119.75;2079560;28;20052;-69
2022/08/30 03:24:41;;;;;;;0.82;0.20;;;;;;;16.17;91.83;101122.03;2079300;28;20045;-69
2022/08/30 03:25:47;;;;;;;0.70;0.70;;;;;;;16.16;91.91;101118.53;2079386;28;20089;-69
2022/08/30 03:26:49;;;;;;;1.65;0.40;;;;;;;16.14;91.62;101119.94;2071333;28;20041;-69
2022/08/30 03:27:53;;;;;;;1.67;0.68;;;;;;;16.16;91.64;101115.81;2055043;28;20513;-68
2022/08/30 03:28:59;;;;;;;0.85;0.85;;;;;;;16.11;91.57;101120.53;2071603;28;20061;-68
2022/08/30 03:30:06;;;;;;;4.85;0.57;;;;;;;16.13;91.75;101111.00;2079624;28;20116;-68
2022/08/30 03:31:10;;;;;;;2.13;0.40;;;;;;;16.16;91.58;101117.72;2078730;28;20045;-69
2022/08/30 03:32:15;;;;;;;1.75;0.60;;;;;;;16.13;91.95;101119.13;2071672;28;20042;-69
2022/08/30 03:33:17;;;;;;;0.85;0.30;;;;;;;16.15;92.05;101121.56;2071236;28;20061;-69
2022/08/30 03:34:21;;;;;;;0.50;0.47;;;;;;;16.12;91.80;101117.53;2071493;28;20045;-69
2022/08/30 03:35:24;;;;;;;1.95;0.50;;;;;;;16.14;92.53;101114.50;2063192;28;20046;-69
2022/08/30 03:36:28;;;;;;;0.50;0.30;;;;;;;16.14;92.45;101125.34;2063635;28;20046;-69
2022/08/30 03:37:30;;;;;;;0.57;0.30;;;;;;;16.08;92.51;101118.44;2079237;28;20045;-69
2022/08/30 03:38:34;;;;;;;2.35;0.52;;;;;;;16.13;92.36;101123.75;2071336;28;20045;-69
2022/08/30 03:39:38;;;;;;;0.30;0.30;;;;;;;16.08;92.40;101116.53;2071953;28;20421;-69
2022/08/30 03:40:45;;;;;;;0.73;0.30;;;;;;;16.09;92.23;101117.34;2079460;28;20416;-69
2022/08/30 03:41:47;;;;;;;1.23;0.50;;;;;;;16.01;92.50;101118.03;2071390;28;20037;-69
2022/08/30 03:42:50;;;;;;;1.08;0.60;;;;;;;16.03;92.74;101118.53;2079450;28;20046;-69
2022/08/30 03:43:52;;;;;;;0.28;0.28;;;;;;;16.00;92.25;101119.94;2070984;28;20045;-69
2022/08/30 03:44:56;;;;;;;0.65;0.55;;;;;;;15.97;92.61;101120.53;2063071;28;20042;-69
2022/08/30 03:46:04;;;;;;;1.42;0.50;;;;;;;15.99;92.52;101119.16;2079122;28;20053;-69
2022/08/30 03:47:07;;;;;;;0.70;0.50;;;;;;;16.03;92.69;101118.53;2079496;28;20041;-70
2022/08/30 03:48:09;;;;;;;1.08;0.40;;;;;;;16.04;92.44;101122.84;2079340;28;20042;-69
2022/08/30 03:49:22;;;;;;;0.40;0.32;;;;;;;16.05;92.73;101124.47;2071517;28;20045;-68
2022/08/30 03:50:25;;;;;;;1.17;0.40;;;;;;;16.04;92.74;101120.94;2081035;28;20052;-69
2022/08/30 03:51:27;;;;;;;2.20;0.38;;;;;;;15.99;92.31;101121.06;2071293;28;20045;-69
2022/08/30 03:52:30;;;;;;;2.90;0.50;;;;;;;16.03;92.35;101118.53;2055127;28;20038;-68
2022/08/30 03:53:35;;;;;;;1.88;0.60;;;;;;;15.97;92.47;101115.91;2063211;28;20541;-69
2022/08/30 03:54:39;;;;;;;0.70;0.40;;;;;;;15.90;92.23;101120.16;2063967;28;20042;-70
2022/08/30 03:55:40;;;;;;;1.20;0.45;;;;;;;15.91;92.38;101122.53;2071191;28;20053;-70
2022/08/30 03:56:42;;;;;;;2.03;0.43;;;;;;;15.86;92.52;101116.44;2063246;28;20039;-68
2022/08/30 03:57:46;;;;;;;0.50;0.40;;;;;;;15.88;92.32;101117.72;2063188;28;20038;-70
2022/08/30 03:58:55;;;;;;;0.88;0.30;;;;;;;15.85;92.24;101126.44;2071960;28;20048;-69
2022/08/30 03:59:57;;;;;;;0.50;0.40;;;;;;;15.87;92.44;101121.53;2079118;28;20041;-69
2022/08/30 04:01:03;;;;;;;1.27;0.60;;;;;;;15.94;92.41;101121.94;2079472;28;20048;-69
2022/08/30 04:02:05;;;;;;;3.03;0.50;;;;;;;15.88;92.57;101128.56;2079399;28;20112;-69
2022/08/30 04:03:10;;;;;;;3.20;0.50;;;;;;;15.87;92.71;101129.69;2071778;28;20060;-69
2022/08/30 04:04:16;;;;;;;0.98;0.35;;;;;;;15.84;92.58;101124.84;2079407;28;20041;-69
2022/08/30 04:05:20;;;;;;;2.70;0.50;;;;;;;15.87;92.60;101126.97;2071219;28;20049;-69
2022/08/30 04:06:24;;;;;;;1.58;0.60;;;;;;;15.89;93.12;101137.50;2064165;28;20436;-69
2022/08/30 04:07:29;;;;;;;1.83;0.60;;;;;;;15.85;92.38;101133.78;2063071;28;20042;-69
2022/08/30 04:08:31;;;;;;;2.05;0.47;;;;;;;15.88;92.40;101123.16;2071563;28;20038;-69
2022/08/30 04:09:35;;;;;;;1.30;0.50;;;;;;;15.87;92.81;101132.41;2071587;28;20096;-70
2022/08/30 04:10:40;;;;;;;2.17;0.68;;;;;;;15.89;92.25;101135.63;2063682;28;20568;-68
2022/08/30 04:11:42;;;;;;;1.50;0.73;;;;;;;15.91;92.78;101132.59;2081256;28;20037;-68
2022/08/30 04:12:46;;;;;;;2.65;0.70;;;;;;;16.01;92.39;101137.81;2080575;28;20037;-67
2022/08/30 04:13:55;;;;;;;1.38;0.52;;;;;;;16.03;92.39;101134.81;2080927;28;20049;-68
2022/08/30 04:15:02;;;;;;;2.83;0.85;;;;;;;15.98;92.38;101141.13;2080527;28;20037;-68
2022/08/30 04:16:04;;;;;;;1.38;0.57;;;;;;;15.97;92.23;101137.63;2080706;28;20041;-68
2022/08/30 04:17:09;;;;;;;1.55;0.60;;;;;;;15.96;92.31;101135.22;2080635;28;20550;-68
2022/08/30 04:18:14;;;;;;;2.60;0.47;;;;;;;16.04;92.33;101137.22;2080612;28;20155;-68
2022/08/30 04:19:17;;;;;;;2.72;0.60;;;;;;;16.05;92.41;101138.03;2080664;28;20047;-68
2022/08/30 04:20:20;;;;;;;2.90;0.60;;;;;;;16.05;92.54;101140.75;2080855;28;20068;-68
2022/08/30 04:21:23;;;;;;;2.70;0.60;;;;;;;16.07;92.17;101135.81;2072942;28;20045;-68
2022/08/30 04:22:25;;;;;;;2.15;0.80;;;;;;;16.04;92.53;101147.25;2072650;28;20053;-69
2022/08/30 04:23:29;;;;;;;1.17;0.60;;;;;;;16.01;92.64;101145.94;2088869;28;20037;-68
2022/08/30 04:24:34;;;;;;;2.83;0.50;;;;;;;16.03;92.96;101148.38;2080297;28;20440;-69
2022/08/30 04:25:40;;;;;;;1.60;0.90;;;;;;;15.90;92.27;101142.63;2065303;28;20042;-68
2022/08/30 04:26:45;;;;;;;1.48;0.57;;;;;;;15.85;92.28;101145.44;2081153;28;20044;-70
2022/08/30 04:27:48;;;;;;;1.30;0.52;;;;;;;15.80;91.48;101137.41;2087889;28;20052;-71
2022/08/30 04:28:49;;;;;;;3.88;1.88;;;;;;;15.79;91.00;101135.78;2080429;28;20045;-70
2022/08/30 04:29:56;;;;;;;2.50;0.70;;;;;;;15.72;90.11;101132.66;2071945;28;20049;-70
2022/08/30 04:31:02;;;;;;;1.67;0.55;;;;;;;15.78;89.87;101136.91;2078812;28;20053;-71
2022/08/30 04:32:04;;;;;;;2.00;0.50;;;;;;;15.79;89.40;101134.97;2080524;28;20041;-71
2022/08/30 04:33:06;;;;;;;0.45;0.45;;;;;;;15.77;88.63;101137.22;2072120;28;20501;-71
2022/08/30 04:34:13;;;;;;;2.35;0.60;;;;;;;15.73;88.08;101140.53;2056327;28;20043;-72
2022/08/30 04:35:18;;;;;;;2.72;0.65;;;;;;;15.74;87.77;101142.13;2072350;28;20546;-71
2022/08/30 04:36:21;;;;;;;2.35;0.68;;;;;;;15.72;87.67;101141.59;2080490;28;20038;-72
2022/08/30 04:37:23;;;;;;;1.63;0.70;;;;;;;15.68;87.44;101153.34;2072610;28;20037;-72
2022/08/30 04:38:25;;;;;;;2.63;0.77;;;;;;;15.68;87.71;101150.66;2080169;28;20059;-70
2022/08/30 04:39:28;;;;;;;1.98;0.70;;;;;;;15.73;87.78;101153.25;2081157;28;20033;-70
2022/08/30 04:40:29;;;;;;;0.65;0.50;;;;;;;15.75;87.95;101153.75;2088674;28;20040;-71
2022/08/30 04:41:32;;;;;;;1.20;0.45;;;;;;;15.75;88.53;101162.69;2080418;28;20196;-70
2022/08/30 04:42:37;;;;;;;0.98;0.40;;;;;;;15.83;88.69;101160.41;2070494;28;20033;-71
2022/08/30 04:43:38;;;;;;;0.82;0.50;;;;;;;15.91;88.93;101157.00;2064334;28;20108;-70
2022/08/30 04:44:43;;;;;;;2.63;0.55;;;;;;;15.91;89.17;101157.78;2059704;28;20046;-70
2022/08/30 04:45:51;;;;;;;2.83;0.57;;;;;;;15.84;89.38;101165.53;2063769;28;20043;-71
2022/08/30 04:46:55;;;;;;;0.75;0.40;;;;;;;15.82;89.48;101166.94;2065298;28;20045;-70
2022/08/30 04:47:57;;;;;;;0.70;0.45;;;;;;;15.75;89.45;101159.19;2072291;28;20045;-70
2022/08/30 04:49:05;;;;;;;1.23;0.50;;;;;;;15.62;89.29;101162.66;2073341;28;20055;-70
2022/08/30 04:50:12;;;;;;;1.35;0.50;;;;;;;15.65;89.70;101153.91;2065063;28;20053;-69
2022/08/30 04:51:16;;;;;;;0.88;0.60;;;;;;;15.58;88.96;101158.94;2073255;28;20057;-69
2022/08/30 04:52:18;;;;;;;0.82;0.40;;;;;;;15.55;89.38;101164.94;2072184;28;20046;-69
2022/08/30 04:53:22;;;;;;;1.25;0.40;;;;;;;15.55;88.81;101156.81;2072432;28;20041;-69
2022/08/30 04:54:27;;;;;;;1.55;0.50;;;;;;;15.54;88.89;101158.69;2080089;28;20053;-68
2022/08/30 04:55:30;;;;;;;1.55;0.60;;;;;;;15.50;88.38;101153.06;2081086;28;20500;-69
2022/08/30 04:56:33;;;;;;;1.85;0.57;;;;;;;15.48;88.58;101152.56;2071768;28;20041;-68
2022/08/30 04:57:36;;;;;;;2.47;0.63;;;;;;;15.50;87.93;101155.78;2072393;28;20045;-68
2022/08/30 04:58:38;;;;;;;3.40;0.60;;;;;;;15.56;87.90;101153.78;2072228;28;20122;-68
2022/08/30 04:59:43;;;;;;;2.03;0.50;;;;;;;15.67;88.04;101151.75;2073248;28;20050;-68
2022/08/30 05:00:45;;;;;;;1.90;0.60;;;;;;;15.78;87.91;101150.44;2080041;28;20626;-68